sensor_id;sensor_type;location;lat;lon;timestamp;temperature;humidity
74809;DHT22;63338;39.544;2.596;2023-02-01T00:00:26;7.80;79.90
74809;DHT22;63338;39.544;2.596;2023-02-01T00:02:52;7.80;79.90
74809;DHT22;63338;39.544;2.596;2023-02-01T00:05:18;7.80;79.90
74809;DHT22;63338;39.544;2.596;2023-02-01T00:07:48;7.50;79.80
74809;DHT22;63338;39.544;2.596;2023-02-01T00:10:17;7.80;79.80
74809;DHT22;63338;39.544;2.596;2023-02-01T00:12:47;7.70;79.70
74809;DHT22;63338;39.544;2.596;2023-02-01T00:15:14;7.70;79.80
74809;DHT22;63338;39.544;2.596;2023-02-01T00:17:45;7.70;80.00
74809;DHT22;63338;39.544;2.596;2023-02-01T00:20:11;7.80;79.90
74809;DHT22;63338;39.544;2.596;2023-02-01T00:22:37;7.70;80.00
74809;DHT22;63338;39.544;2.596;2023-02-01T00:25:09;7.50;80.10
74809;DHT22;63338;39.544;2.596;2023-02-01T00:27:35;7.50;80.20
74809;DHT22;63338;39.544;2.596;2023-02-01T00:30:01;7.40;80.00
74809;DHT22;63338;39.544;2.596;2023-02-01T00:32:28;7.40;80.40
74809;DHT22;63338;39.544;2.596;2023-02-01T00:34:54;7.40;80.50
74809;DHT22;63338;39.544;2.596;2023-02-01T00:37:23;7.30;80.70
74809;DHT22;63338;39.544;2.596;2023-02-01T00:39:49;7.30;80.90
74809;DHT22;63338;39.544;2.596;2023-02-01T00:42:18;7.40;80.80
74809;DHT22;63338;39.544;2.596;2023-02-01T00:44:44;7.30;80.90
74809;DHT22;63338;39.544;2.596;2023-02-01T00:47:10;7.30;81.20
74809;DHT22;63338;39.544;2.596;2023-02-01T00:49:36;7.30;81.50
74809;DHT22;63338;39.544;2.596;2023-02-01T00:52:03;7.10;81.70
74809;DHT22;63338;39.544;2.596;2023-02-01T00:54:29;7.30;81.60
74809;DHT22;63338;39.544;2.596;2023-02-01T00:56:55;7.30;81.50
74809;DHT22;63338;39.544;2.596;2023-02-01T00:59:21;7.10;81.40
74809;DHT22;63338;39.544;2.596;2023-02-01T01:01:47;7.10;81.70
74809;DHT22;63338;39.544;2.596;2023-02-01T01:04:14;7.20;81.70
74809;DHT22;63338;39.544;2.596;2023-02-01T01:06:39;7.30;82.00
74809;DHT22;63338;39.544;2.596;2023-02-01T01:09:07;7.10;82.00
74809;DHT22;63338;39.544;2.596;2023-02-01T01:11:35;7.30;81.80
74809;DHT22;63338;39.544;2.596;2023-02-01T01:14:03;7.20;82.00
74809;DHT22;63338;39.544;2.596;2023-02-01T01:16:31;7.20;82.30
74809;DHT22;63338;39.544;2.596;2023-02-01T01:18:58;7.10;82.10
74809;DHT22;63338;39.544;2.596;2023-02-01T01:21:24;7.10;82.20
74809;DHT22;63338;39.544;2.596;2023-02-01T01:23:51;7.20;82.20
74809;DHT22;63338;39.544;2.596;2023-02-01T01:26:20;7.20;82.40
74809;DHT22;63338;39.544;2.596;2023-02-01T01:28:46;7.10;82.30
74809;DHT22;63338;39.544;2.596;2023-02-01T01:31:14;7.30;82.30
74809;DHT22;63338;39.544;2.596;2023-02-01T01:33:40;7.10;82.30
74809;DHT22;63338;39.544;2.596;2023-02-01T01:36:11;7.20;82.50
74809;DHT22;63338;39.544;2.596;2023-02-01T01:38:38;7.20;82.50
74809;DHT22;63338;39.544;2.596;2023-02-01T01:41:05;7.20;82.40
74809;DHT22;63338;39.544;2.596;2023-02-01T01:43:53;7.20;82.50
74809;DHT22;63338;39.544;2.596;2023-02-01T01:46:28;7.10;82.80
74809;DHT22;63338;39.544;2.596;2023-02-01T01:49:14;7.00;82.60
74809;DHT22;63338;39.544;2.596;2023-02-01T01:51:52;6.90;83.10
74809;DHT22;63338;39.544;2.596;2023-02-01T01:54:32;6.90;82.90
74809;DHT22;63338;39.544;2.596;2023-02-01T01:57:06;7.10;83.00
74809;DHT22;63338;39.544;2.596;2023-02-01T01:59:36;6.90;82.80
74809;DHT22;63338;39.544;2.596;2023-02-01T02:02:03;6.90;83.10
74809;DHT22;63338;39.544;2.596;2023-02-01T02:04:33;7.00;82.80
74809;DHT22;63338;39.544;2.596;2023-02-01T02:07:08;6.90;83.10
74809;DHT22;63338;39.544;2.596;2023-02-01T02:09:35;6.90;83.20
74809;DHT22;63338;39.544;2.596;2023-02-01T02:12:01;6.70;83.30
74809;DHT22;63338;39.544;2.596;2023-02-01T02:14:27;6.70;83.40
74809;DHT22;63338;39.544;2.596;2023-02-01T02:17:07;6.60;83.60
74809;DHT22;63338;39.544;2.596;2023-02-01T02:36:43;6.70;84.00
74809;DHT22;63338;39.544;2.596;2023-02-01T02:45:38;6.70;84.00
74809;DHT22;63338;39.544;2.596;2023-02-01T02:48:42;6.50;84.10
74809;DHT22;63338;39.544;2.596;2023-02-01T02:51:32;6.50;84.10
74809;DHT22;63338;39.544;2.596;2023-02-01T02:54:23;6.60;84.60
74809;DHT22;63338;39.544;2.596;2023-02-01T02:57:09;6.60;84.60
74809;DHT22;63338;39.544;2.596;2023-02-01T02:59:55;6.50;84.80
74809;DHT22;63338;39.544;2.596;2023-02-01T03:02:42;6.50;84.80
74809;DHT22;63338;39.544;2.596;2023-02-01T03:05:39;6.50;84.90
74809;DHT22;63338;39.544;2.596;2023-02-01T03:08:17;6.40;85.00
74809;DHT22;63338;39.544;2.596;2023-02-01T03:11:12;6.40;85.20
74809;DHT22;63338;39.544;2.596;2023-02-01T03:16:24;6.50;85.20
74809;DHT22;63338;39.544;2.596;2023-02-01T03:19:11;6.30;85.40
74809;DHT22;63338;39.544;2.596;2023-02-01T03:22:01;6.40;85.50
74809;DHT22;63338;39.544;2.596;2023-02-01T03:24:37;6.50;85.80
74809;DHT22;63338;39.544;2.596;2023-02-01T03:32:38;6.50;86.20
74809;DHT22;63338;39.544;2.596;2023-02-01T03:38:32;6.50;86.00
74809;DHT22;63338;39.544;2.596;2023-02-01T03:44:03;6.40;86.20
74809;DHT22;63338;39.544;2.596;2023-02-01T03:46:38;6.40;86.10
74809;DHT22;63338;39.544;2.596;2023-02-01T03:49:09;6.60;86.20
74809;DHT22;63338;39.544;2.596;2023-02-01T03:51:38;6.40;86.20
74809;DHT22;63338;39.544;2.596;2023-02-01T03:54:09;6.50;86.20
74809;DHT22;63338;39.544;2.596;2023-02-01T03:56:38;6.30;86.30
74809;DHT22;63338;39.544;2.596;2023-02-01T03:59:07;6.40;86.60
74809;DHT22;63338;39.544;2.596;2023-02-01T04:01:34;6.50;86.70
74809;DHT22;63338;39.544;2.596;2023-02-01T04:04:00;6.40;86.90
74809;DHT22;63338;39.544;2.596;2023-02-01T04:06:26;6.20;87.10
74809;DHT22;63338;39.544;2.596;2023-02-01T04:08:52;6.50;87.20
74809;DHT22;63338;39.544;2.596;2023-02-01T04:11:18;6.30;87.30
74809;DHT22;63338;39.544;2.596;2023-02-01T04:13:45;6.30;87.50
74809;DHT22;63338;39.544;2.596;2023-02-01T04:16:11;6.20;87.30
74809;DHT22;63338;39.544;2.596;2023-02-01T04:18:37;6.40;87.30
74809;DHT22;63338;39.544;2.596;2023-02-01T04:21:03;6.30;87.40
74809;DHT22;63338;39.544;2.596;2023-02-01T04:23:30;6.10;87.40
74809;DHT22;63338;39.544;2.596;2023-02-01T04:26:04;6.40;87.70
74809;DHT22;63338;39.544;2.596;2023-02-01T04:28:30;6.30;88.00
74809;DHT22;63338;39.544;2.596;2023-02-01T04:31:00;6.40;88.20
74809;DHT22;63338;39.544;2.596;2023-02-01T04:33:26;6.40;88.10
74809;DHT22;63338;39.544;2.596;2023-02-01T04:35:52;6.40;87.90
74809;DHT22;63338;39.544;2.596;2023-02-01T04:38:18;6.40;87.90
74809;DHT22;63338;39.544;2.596;2023-02-01T04:40:47;6.50;87.80
74809;DHT22;63338;39.544;2.596;2023-02-01T04:43:13;6.60;87.90
74809;DHT22;63338;39.544;2.596;2023-02-01T04:45:39;6.50;87.90
74809;DHT22;63338;39.544;2.596;2023-02-01T04:48:05;6.40;87.70
74809;DHT22;63338;39.544;2.596;2023-02-01T04:50:34;6.50;88.20
74809;DHT22;63338;39.544;2.596;2023-02-01T04:53:00;6.60;88.20
74809;DHT22;63338;39.544;2.596;2023-02-01T04:55:27;6.70;88.10
74809;DHT22;63338;39.544;2.596;2023-02-01T04:57:53;6.70;88.30
74809;DHT22;63338;39.544;2.596;2023-02-01T05:00:20;6.60;88.20
74809;DHT22;63338;39.544;2.596;2023-02-01T05:02:46;6.70;88.40
74809;DHT22;63338;39.544;2.596;2023-02-01T05:05:12;6.80;88.50
74809;DHT22;63338;39.544;2.596;2023-02-01T05:07:40;6.80;88.30
74809;DHT22;63338;39.544;2.596;2023-02-01T05:10:07;6.80;88.30
74809;DHT22;63338;39.544;2.596;2023-02-01T05:12:34;6.60;88.50
74809;DHT22;63338;39.544;2.596;2023-02-01T05:15:18;6.80;88.60
74809;DHT22;63338;39.544;2.596;2023-02-01T05:17:44;6.70;88.70
74809;DHT22;63338;39.544;2.596;2023-02-01T05:20:11;6.70;88.60
74809;DHT22;63338;39.544;2.596;2023-02-01T05:22:37;6.80;88.50
74809;DHT22;63338;39.544;2.596;2023-02-01T05:25:03;6.70;88.60
74809;DHT22;63338;39.544;2.596;2023-02-01T05:27:30;6.80;88.60
74809;DHT22;63338;39.544;2.596;2023-02-01T05:29:56;6.90;88.60
74809;DHT22;63338;39.544;2.596;2023-02-01T05:32:22;6.80;88.50
74809;DHT22;63338;39.544;2.596;2023-02-01T05:34:48;6.80;89.10
74809;DHT22;63338;39.544;2.596;2023-02-01T05:37:15;6.90;88.90
74809;DHT22;63338;39.544;2.596;2023-02-01T05:39:40;6.80;88.80
74809;DHT22;63338;39.544;2.596;2023-02-01T05:42:06;6.70;88.90
74809;DHT22;63338;39.544;2.596;2023-02-01T05:44:32;6.80;89.20
74809;DHT22;63338;39.544;2.596;2023-02-01T05:46:58;6.60;89.40
74809;DHT22;63338;39.544;2.596;2023-02-01T05:49:24;6.70;89.30
74809;DHT22;63338;39.544;2.596;2023-02-01T05:51:50;6.70;88.90
74809;DHT22;63338;39.544;2.596;2023-02-01T05:54:17;6.90;89.10
74809;DHT22;63338;39.544;2.596;2023-02-01T05:56:43;6.70;89.10
74809;DHT22;63338;39.544;2.596;2023-02-01T05:59:09;6.50;89.40
74809;DHT22;63338;39.544;2.596;2023-02-01T06:01:36;6.80;89.70
74809;DHT22;63338;39.544;2.596;2023-02-01T06:04:05;6.60;89.40
74809;DHT22;63338;39.544;2.596;2023-02-01T06:06:34;6.60;89.30
74809;DHT22;63338;39.544;2.596;2023-02-01T06:09:04;6.60;89.40
74809;DHT22;63338;39.544;2.596;2023-02-01T06:11:34;6.60;89.40
74809;DHT22;63338;39.544;2.596;2023-02-01T06:14:00;6.40;89.70
74809;DHT22;63338;39.544;2.596;2023-02-01T06:16:26;6.70;89.50
74809;DHT22;63338;39.544;2.596;2023-02-01T06:18:52;6.50;89.30
74809;DHT22;63338;39.544;2.596;2023-02-01T06:21:19;6.60;89.50
74809;DHT22;63338;39.544;2.596;2023-02-01T06:23:53;6.70;89.30
74809;DHT22;63338;39.544;2.596;2023-02-01T06:26:19;6.50;89.30
74809;DHT22;63338;39.544;2.596;2023-02-01T06:28:45;6.50;89.40
74809;DHT22;63338;39.544;2.596;2023-02-01T06:31:12;6.60;89.40
74809;DHT22;63338;39.544;2.596;2023-02-01T06:33:39;6.50;89.90
74809;DHT22;63338;39.544;2.596;2023-02-01T06:36:06;6.60;90.10
74809;DHT22;63338;39.544;2.596;2023-02-01T06:38:36;6.50;90.30
74809;DHT22;63338;39.544;2.596;2023-02-01T06:41:03;6.50;89.80
74809;DHT22;63338;39.544;2.596;2023-02-01T06:43:32;6.50;89.70
74809;DHT22;63338;39.544;2.596;2023-02-01T06:46:06;6.50;90.00
74809;DHT22;63338;39.544;2.596;2023-02-01T06:48:33;6.50;90.60
74809;DHT22;63338;39.544;2.596;2023-02-01T06:51:03;6.60;90.90
74809;DHT22;63338;39.544;2.596;2023-02-01T06:53:32;6.70;91.10
74809;DHT22;63338;39.544;2.596;2023-02-01T06:56:01;6.50;91.40
74809;DHT22;63338;39.544;2.596;2023-02-01T06:58:29;6.50;91.10
74809;DHT22;63338;39.544;2.596;2023-02-01T07:00:55;6.60;91.20
74809;DHT22;63338;39.544;2.596;2023-02-01T07:03:21;6.50;91.20
74809;DHT22;63338;39.544;2.596;2023-02-01T07:05:47;6.60;91.00
74809;DHT22;63338;39.544;2.596;2023-02-01T07:08:14;6.50;91.20
74809;DHT22;63338;39.544;2.596;2023-02-01T07:10:43;6.60;91.20
74809;DHT22;63338;39.544;2.596;2023-02-01T07:13:09;6.50;91.30
74809;DHT22;63338;39.544;2.596;2023-02-01T07:15:35;6.50;91.10
74809;DHT22;63338;39.544;2.596;2023-02-01T07:18:04;6.60;90.90
74809;DHT22;63338;39.544;2.596;2023-02-01T07:20:30;6.80;90.80
74809;DHT22;63338;39.544;2.596;2023-02-01T07:22:59;6.80;90.90
74809;DHT22;63338;39.544;2.596;2023-02-01T07:25:25;7.00;90.70
74809;DHT22;63338;39.544;2.596;2023-02-01T07:27:51;7.00;90.40
74809;DHT22;63338;39.544;2.596;2023-02-01T07:30:17;7.20;90.20
74809;DHT22;63338;39.544;2.596;2023-02-01T07:32:43;7.00;89.70
74809;DHT22;63338;39.544;2.596;2023-02-01T07:35:09;7.30;89.70
74809;DHT22;63338;39.544;2.596;2023-02-01T07:37:43;7.30;89.80
74809;DHT22;63338;39.544;2.596;2023-02-01T07:40:13;7.50;89.40
74809;DHT22;63338;39.544;2.596;2023-02-01T07:42:40;7.40;89.40
74809;DHT22;63338;39.544;2.596;2023-02-01T07:45:06;7.50;89.40
74809;DHT22;63338;39.544;2.596;2023-02-01T07:47:33;7.60;89.50
74809;DHT22;63338;39.544;2.596;2023-02-01T07:49:59;7.80;89.80
74809;DHT22;63338;39.544;2.596;2023-02-01T07:52:28;7.90;90.10
74809;DHT22;63338;39.544;2.596;2023-02-01T07:54:55;7.80;90.60
74809;DHT22;63338;39.544;2.596;2023-02-01T07:57:21;7.90;91.10
74809;DHT22;63338;39.544;2.596;2023-02-01T07:59:47;8.20;91.20
74809;DHT22;63338;39.544;2.596;2023-02-01T08:02:32;8.20;91.30
74809;DHT22;63338;39.544;2.596;2023-02-01T08:04:58;8.40;91.70
74809;DHT22;63338;39.544;2.596;2023-02-01T08:07:24;8.40;92.00
74809;DHT22;63338;39.544;2.596;2023-02-01T08:09:50;8.60;92.10
74809;DHT22;63338;39.544;2.596;2023-02-01T08:12:16;8.60;91.90
74809;DHT22;63338;39.544;2.596;2023-02-01T08:14:42;8.80;92.10
74809;DHT22;63338;39.544;2.596;2023-02-01T08:17:11;8.80;92.00
74809;DHT22;63338;39.544;2.596;2023-02-01T08:19:37;8.80;91.90
74809;DHT22;63338;39.544;2.596;2023-02-01T08:22:03;9.00;91.90
74809;DHT22;63338;39.544;2.596;2023-02-01T08:24:33;9.10;92.20
74809;DHT22;63338;39.544;2.596;2023-02-01T08:27:01;9.10;92.00
74809;DHT22;63338;39.544;2.596;2023-02-01T08:29:28;9.30;92.00
74809;DHT22;63338;39.544;2.596;2023-02-01T08:31:54;9.30;91.90
74809;DHT22;63338;39.544;2.596;2023-02-01T08:34:21;9.40;91.90
74809;DHT22;63338;39.544;2.596;2023-02-01T08:36:47;9.50;91.90
74809;DHT22;63338;39.544;2.596;2023-02-01T08:39:13;9.60;92.10
74809;DHT22;63338;39.544;2.596;2023-02-01T08:41:39;9.70;91.70
74809;DHT22;63338;39.544;2.596;2023-02-01T08:44:05;9.90;92.10
74809;DHT22;63338;39.544;2.596;2023-02-01T08:46:32;10.10;91.80
74809;DHT22;63338;39.544;2.596;2023-02-01T08:56:10;11.40;90.20
74809;DHT22;63338;39.544;2.596;2023-02-01T08:58:40;12.70;87.50
74809;DHT22;63338;39.544;2.596;2023-02-01T09:01:17;13.80;84.70
74809;DHT22;63338;39.544;2.596;2023-02-01T09:03:43;15.10;80.90
74809;DHT22;63338;39.544;2.596;2023-02-01T09:06:16;16.10;75.70
74809;DHT22;63338;39.544;2.596;2023-02-01T09:08:49;17.10;72.80
74809;DHT22;63338;39.544;2.596;2023-02-01T09:11:18;18.10;70.90
74809;DHT22;63338;39.544;2.596;2023-02-01T09:13:48;18.80;67.10
74809;DHT22;63338;39.544;2.596;2023-02-01T09:16:14;19.50;65.50
74809;DHT22;63338;39.544;2.596;2023-02-01T09:18:40;19.90;63.70
74809;DHT22;63338;39.544;2.596;2023-02-01T09:21:09;20.30;62.30
74809;DHT22;63338;39.544;2.596;2023-02-01T09:23:35;20.60;62.30
74809;DHT22;63338;39.544;2.596;2023-02-01T09:26:05;20.80;61.40
74809;DHT22;63338;39.544;2.596;2023-02-01T09:28:31;21.30;59.90
74809;DHT22;63338;39.544;2.596;2023-02-01T09:30:58;21.50;58.60
74809;DHT22;63338;39.544;2.596;2023-02-01T09:33:26;21.90;58.50
74809;DHT22;63338;39.544;2.596;2023-02-01T09:35:57;22.30;57.60
74809;DHT22;63338;39.544;2.596;2023-02-01T09:38:23;22.70;56.70
74809;DHT22;63338;39.544;2.596;2023-02-01T09:40:51;23.00;56.10
74809;DHT22;63338;39.544;2.596;2023-02-01T09:48:43;23.60;54.30
74809;DHT22;63338;39.544;2.596;2023-02-01T09:51:20;23.80;53.60
74809;DHT22;63338;39.544;2.596;2023-02-01T09:54:06;24.10;54.10
74809;DHT22;63338;39.544;2.596;2023-02-01T10:02:02;24.30;52.40
74809;DHT22;63338;39.544;2.596;2023-02-01T10:04:38;24.20;52.40
74809;DHT22;63338;39.544;2.596;2023-02-01T10:13:01;24.60;51.80
74809;DHT22;63338;39.544;2.596;2023-02-01T10:15:55;24.40;51.40
74809;DHT22;63338;39.544;2.596;2023-02-01T10:18:37;24.20;51.80
74809;DHT22;63338;39.544;2.596;2023-02-01T10:27:02;24.10;52.00
74809;DHT22;63338;39.544;2.596;2023-02-01T10:29:39;24.20;51.70
74809;DHT22;63338;39.544;2.596;2023-02-01T10:32:17;24.10;51.40
74809;DHT22;63338;39.544;2.596;2023-02-01T10:34:48;24.00;51.70
74809;DHT22;63338;39.544;2.596;2023-02-01T10:37:32;23.90;51.90
74809;DHT22;63338;39.544;2.596;2023-02-01T10:40:16;23.90;51.50
74809;DHT22;63338;39.544;2.596;2023-02-01T10:42:43;23.90;51.30
74809;DHT22;63338;39.544;2.596;2023-02-01T10:45:14;23.80;52.00
74809;DHT22;63338;39.544;2.596;2023-02-01T10:47:41;23.60;52.10
74809;DHT22;63338;39.544;2.596;2023-02-01T10:52:52;23.40;52.40
74809;DHT22;63338;39.544;2.596;2023-02-01T10:55:39;23.10;53.00
74809;DHT22;63338;39.544;2.596;2023-02-01T10:58:19;22.70;53.30
74809;DHT22;63338;39.544;2.596;2023-02-01T11:03:40;22.60;54.20
74809;DHT22;63338;39.544;2.596;2023-02-01T11:08:53;23.10;52.90
74809;DHT22;63338;39.544;2.596;2023-02-01T11:11:20;23.20;52.30
74809;DHT22;63338;39.544;2.596;2023-02-01T11:14:04;23.30;52.70
74809;DHT22;63338;39.544;2.596;2023-02-01T11:16:37;23.30;52.40
74809;DHT22;63338;39.544;2.596;2023-02-01T11:19:04;23.30;52.20
74809;DHT22;63338;39.544;2.596;2023-02-01T11:21:32;23.40;51.80
74809;DHT22;63338;39.544;2.596;2023-02-01T11:24:11;23.50;52.10
74809;DHT22;63338;39.544;2.596;2023-02-01T11:26:41;23.30;51.80
74809;DHT22;63338;39.544;2.596;2023-02-01T11:29:16;23.20;52.40
74809;DHT22;63338;39.544;2.596;2023-02-01T11:31:51;23.10;52.10
74809;DHT22;63338;39.544;2.596;2023-02-01T11:34:21;23.10;52.40
74809;DHT22;63338;39.544;2.596;2023-02-01T11:36:49;23.10;52.10
74809;DHT22;63338;39.544;2.596;2023-02-01T11:44:38;22.50;52.80
74809;DHT22;63338;39.544;2.596;2023-02-01T11:55:35;22.70;52.60
74809;DHT22;63338;39.544;2.596;2023-02-01T12:12:28;22.00;53.50
74809;DHT22;63338;39.544;2.596;2023-02-01T12:17:59;22.00;54.10
74809;DHT22;63338;39.544;2.596;2023-02-01T12:20:31;22.00;53.50
74809;DHT22;63338;39.544;2.596;2023-02-01T12:26:12;21.50;54.00
74809;DHT22;63338;39.544;2.596;2023-02-01T12:34:54;21.00;55.80
74809;DHT22;63338;39.544;2.596;2023-02-01T12:40:28;20.30;57.40
74809;DHT22;63338;39.544;2.596;2023-02-01T12:43:27;20.40;57.80
74809;DHT22;63338;39.544;2.596;2023-02-01T12:46:06;20.40;57.90
74809;DHT22;63338;39.544;2.596;2023-02-01T13:05:11;19.70;57.50
74809;DHT22;63338;39.544;2.596;2023-02-01T13:08:00;19.40;57.80
74809;DHT22;63338;39.544;2.596;2023-02-01T13:10:33;19.10;58.30
74809;DHT22;63338;39.544;2.596;2023-02-01T13:16:13;18.90;58.00
74809;DHT22;63338;39.544;2.596;2023-02-01T13:18:48;18.90;56.00
74809;DHT22;63338;39.544;2.596;2023-02-01T13:21:26;18.80;56.70
74809;DHT22;63338;39.544;2.596;2023-02-01T13:23:54;18.70;56.00
74809;DHT22;63338;39.544;2.596;2023-02-01T13:26:22;18.50;56.00
74809;DHT22;63338;39.544;2.596;2023-02-01T13:28:56;18.50;55.40
74809;DHT22;63338;39.544;2.596;2023-02-01T13:39:39;18.90;55.50
74809;DHT22;63338;39.544;2.596;2023-02-01T13:42:24;19.10;54.90
74809;DHT22;63338;39.544;2.596;2023-02-01T13:47:31;19.30;54.30
74809;DHT22;63338;39.544;2.596;2023-02-01T13:50:32;19.40;54.30
74809;DHT22;63338;39.544;2.596;2023-02-01T13:53:04;19.70;54.10
74809;DHT22;63338;39.544;2.596;2023-02-01T13:56:16;19.70;53.10
74809;DHT22;63338;39.544;2.596;2023-02-01T14:03:51;19.70;52.60
74809;DHT22;63338;39.544;2.596;2023-02-01T14:06:39;19.80;52.90
74809;DHT22;63338;39.544;2.596;2023-02-01T14:11:39;20.20;52.80
74809;DHT22;63338;39.544;2.596;2023-02-01T14:19:31;20.40;53.40
74809;DHT22;63338;39.544;2.596;2023-02-01T14:22:40;20.30;53.40
74809;DHT22;63338;39.544;2.596;2023-02-01T14:24:58;20.20;53.20
74809;DHT22;63338;39.544;2.596;2023-02-01T14:27:27;20.30;53.20
74809;DHT22;63338;39.544;2.596;2023-02-01T14:29:58;20.20;53.20
74809;DHT22;63338;39.544;2.596;2023-02-01T14:35:01;19.40;54.80
74809;DHT22;63338;39.544;2.596;2023-02-01T14:37:36;19.50;54.70
74809;DHT22;63338;39.544;2.596;2023-02-01T14:42:48;19.80;54.20
74809;DHT22;63338;39.544;2.596;2023-02-01T14:50:38;19.30;55.10
74809;DHT22;63338;39.544;2.596;2023-02-01T15:04:18;17.30;59.80
74809;DHT22;63338;39.544;2.596;2023-02-01T15:06:49;17.20;60.40
74809;DHT22;63338;39.544;2.596;2023-02-01T15:14:41;16.60;61.10
74809;DHT22;63338;39.544;2.596;2023-02-01T15:17:37;16.50;61.60
74809;DHT22;63338;39.544;2.596;2023-02-01T15:20:32;16.50;62.10
74809;DHT22;63338;39.544;2.596;2023-02-01T15:23:01;16.40;61.80
74809;DHT22;63338;39.544;2.596;2023-02-01T15:25:35;16.30;62.60
74809;DHT22;63338;39.544;2.596;2023-02-01T15:28:02;16.20;62.90
74809;DHT22;63338;39.544;2.596;2023-02-01T15:30:31;16.10;63.30
74809;DHT22;63338;39.544;2.596;2023-02-01T15:33:15;16.00;63.20
74809;DHT22;63338;39.544;2.596;2023-02-01T15:35:55;16.00;63.40
74809;DHT22;63338;39.544;2.596;2023-02-01T15:46:34;15.50;64.50
74809;DHT22;63338;39.544;2.596;2023-02-01T15:49:05;15.40;64.80
74809;DHT22;63338;39.544;2.596;2023-02-01T15:51:44;15.40;66.10
74809;DHT22;63338;39.544;2.596;2023-02-01T15:54:20;15.40;66.30
74809;DHT22;63338;39.544;2.596;2023-02-01T15:56:52;15.30;66.70
74809;DHT22;63338;39.544;2.596;2023-02-01T15:59:31;15.20;66.70
74809;DHT22;63338;39.544;2.596;2023-02-01T16:01:57;15.20;66.50
74809;DHT22;63338;39.544;2.596;2023-02-01T16:04:29;15.10;66.00
74809;DHT22;63338;39.544;2.596;2023-02-01T16:07:00;15.00;66.10
74809;DHT22;63338;39.544;2.596;2023-02-01T16:09:40;15.00;66.50
74809;DHT22;63338;39.544;2.596;2023-02-01T16:15:04;15.00;66.60
74809;DHT22;63338;39.544;2.596;2023-02-01T16:17:31;14.90;66.50
74809;DHT22;63338;39.544;2.596;2023-02-01T16:19:57;14.80;66.00
74809;DHT22;63338;39.544;2.596;2023-02-01T16:22:27;14.80;66.00
74809;DHT22;63338;39.544;2.596;2023-02-01T16:24:55;14.90;66.20
74809;DHT22;63338;39.544;2.596;2023-02-01T16:27:21;14.80;66.60
74809;DHT22;63338;39.544;2.596;2023-02-01T16:29:48;14.80;66.70
74809;DHT22;63338;39.544;2.596;2023-02-01T16:32:21;14.80;66.50
74809;DHT22;63338;39.544;2.596;2023-02-01T16:34:48;14.80;66.50
74809;DHT22;63338;39.544;2.596;2023-02-01T16:37:24;14.80;66.40
74809;DHT22;63338;39.544;2.596;2023-02-01T16:39:51;14.80;66.80
74809;DHT22;63338;39.544;2.596;2023-02-01T16:42:17;14.80;66.60
74809;DHT22;63338;39.544;2.596;2023-02-01T16:44:43;14.70;66.90
74809;DHT22;63338;39.544;2.596;2023-02-01T16:47:16;14.70;67.40
74809;DHT22;63338;39.544;2.596;2023-02-01T16:49:45;14.70;67.50
74809;DHT22;63338;39.544;2.596;2023-02-01T16:52:18;14.60;67.90
74809;DHT22;63338;39.544;2.596;2023-02-01T16:54:45;14.50;67.80
74809;DHT22;63338;39.544;2.596;2023-02-01T16:57:12;14.40;68.60
74809;DHT22;63338;39.544;2.596;2023-02-01T16:59:39;14.40;68.70
74809;DHT22;63338;39.544;2.596;2023-02-01T17:02:08;14.30;68.80
74809;DHT22;63338;39.544;2.596;2023-02-01T17:04:38;14.20;69.50
74809;DHT22;63338;39.544;2.596;2023-02-01T17:07:12;14.10;69.60
74809;DHT22;63338;39.544;2.596;2023-02-01T17:09:39;14.00;70.10
74809;DHT22;63338;39.544;2.596;2023-02-01T17:12:06;13.90;70.70
74809;DHT22;63338;39.544;2.596;2023-02-01T17:14:38;13.70;70.90
74809;DHT22;63338;39.544;2.596;2023-02-01T17:17:09;13.60;71.20
74809;DHT22;63338;39.544;2.596;2023-02-01T17:19:35;13.50;71.50
74809;DHT22;63338;39.544;2.596;2023-02-01T17:22:02;13.40;71.90
74809;DHT22;63338;39.544;2.596;2023-02-01T17:24:30;13.30;72.10
74809;DHT22;63338;39.544;2.596;2023-02-01T17:26:56;13.20;72.50
74809;DHT22;63338;39.544;2.596;2023-02-01T17:29:23;13.10;72.80
74809;DHT22;63338;39.544;2.596;2023-02-01T17:31:53;12.90;73.00
74809;DHT22;63338;39.544;2.596;2023-02-01T17:34:20;12.80;73.20
74809;DHT22;63338;39.544;2.596;2023-02-01T17:36:48;12.60;74.60
74809;DHT22;63338;39.544;2.596;2023-02-01T17:39:15;12.60;74.80
74809;DHT22;63338;39.544;2.596;2023-02-01T17:42:00;12.60;75.20
74809;DHT22;63338;39.544;2.596;2023-02-01T17:44:30;12.30;75.40
74809;DHT22;63338;39.544;2.596;2023-02-01T17:46:59;12.30;75.70
74809;DHT22;63338;39.544;2.596;2023-02-01T17:49:26;12.10;75.90
74809;DHT22;63338;39.544;2.596;2023-02-01T17:51:54;12.10;76.00
74809;DHT22;63338;39.544;2.596;2023-02-01T17:54:23;12.00;76.10
74809;DHT22;63338;39.544;2.596;2023-02-01T17:56:54;11.90;76.20
74809;DHT22;63338;39.544;2.596;2023-02-01T17:59:21;11.60;76.30
74809;DHT22;63338;39.544;2.596;2023-02-01T18:01:54;11.60;76.60
74809;DHT22;63338;39.544;2.596;2023-02-01T18:04:43;11.50;76.80
74809;DHT22;63338;39.544;2.596;2023-02-01T18:07:17;11.40;77.00
74809;DHT22;63338;39.544;2.596;2023-02-01T18:09:46;11.40;77.40
74809;DHT22;63338;39.544;2.596;2023-02-01T18:12:22;11.30;77.50
74809;DHT22;63338;39.544;2.596;2023-02-01T18:14:54;11.20;77.70
74809;DHT22;63338;39.544;2.596;2023-02-01T18:17:20;11.20;77.60
74809;DHT22;63338;39.544;2.596;2023-02-01T18:19:46;11.20;77.80
74809;DHT22;63338;39.544;2.596;2023-02-01T18:22:17;11.10;77.90
74809;DHT22;63338;39.544;2.596;2023-02-01T18:24:44;11.10;78.00
74809;DHT22;63338;39.544;2.596;2023-02-01T18:27:10;11.10;77.90
74809;DHT22;63338;39.544;2.596;2023-02-01T18:29:36;11.00;78.00
74809;DHT22;63338;39.544;2.596;2023-02-01T18:32:05;11.00;78.10
74809;DHT22;63338;39.544;2.596;2023-02-01T18:34:34;10.90;78.20
74809;DHT22;63338;39.544;2.596;2023-02-01T18:37:00;10.90;78.30
74809;DHT22;63338;39.544;2.596;2023-02-01T18:39:26;10.80;78.40
74809;DHT22;63338;39.544;2.596;2023-02-01T18:41:52;10.80;78.60
74809;DHT22;63338;39.544;2.596;2023-02-01T18:44:18;10.70;78.90
74809;DHT22;63338;39.544;2.596;2023-02-01T18:46:48;10.60;78.80
74809;DHT22;63338;39.544;2.596;2023-02-01T18:49:15;10.60;79.00
74809;DHT22;63338;39.544;2.596;2023-02-01T18:51:43;10.60;78.90
74809;DHT22;63338;39.544;2.596;2023-02-01T18:54:10;10.60;79.30
74809;DHT22;63338;39.544;2.596;2023-02-01T18:56:37;10.60;79.30
74809;DHT22;63338;39.544;2.596;2023-02-01T18:59:03;10.40;79.60
74809;DHT22;63338;39.544;2.596;2023-02-01T19:01:29;10.50;79.60
74809;DHT22;63338;39.544;2.596;2023-02-01T19:03:55;10.50;79.50
74809;DHT22;63338;39.544;2.596;2023-02-01T19:06:21;10.40;79.70
74809;DHT22;63338;39.544;2.596;2023-02-01T19:08:47;10.40;79.70
74809;DHT22;63338;39.544;2.596;2023-02-01T19:11:17;10.30;79.90
74809;DHT22;63338;39.544;2.596;2023-02-01T19:13:43;10.30;80.00
74809;DHT22;63338;39.544;2.596;2023-02-01T19:16:13;10.30;80.00
74809;DHT22;63338;39.544;2.596;2023-02-01T19:18:40;10.30;80.30